createdAt,value
2023-02-09T00:01:27.009Z,69.84
2023-02-09T00:03:54.250Z,70.48
2023-02-09T00:06:29.930Z,70.61
2023-02-09T00:09:03.105Z,70.54
2023-02-09T00:12:00.325Z,69.41
2023-02-09T00:14:52.308Z,69.34
2023-02-09T00:17:21.746Z,68.98
2023-02-09T00:19:55.940Z,68.56
2023-02-09T00:22:23.080Z,69.21
2023-02-09T00:24:49.989Z,68.85
2023-02-09T00:27:16.578Z,68.52
2023-02-09T00:29:43.388Z,68.77
2023-02-09T00:32:25.547Z,68.19
2023-02-09T00:34:52.219Z,69.20
2023-02-09T00:40:00.001Z,69.09
2023-02-09T00:42:46.799Z,69.20
2023-02-09T00:47:58.756Z,68.43
2023-02-09T00:50:28.250Z,68.38
2023-02-09T00:53:01.289Z,68.73
2023-02-09T00:56:11.503Z,68.27
2023-02-09T00:58:38.550Z,68.88
2023-02-09T01:01:23.981Z,68.95
2023-02-09T01:04:08.106Z,68.58
2023-02-09T01:06:35.243Z,69.09
2023-02-09T01:09:04.456Z,69.00
2023-02-09T01:11:31.435Z,69.12
2023-02-09T01:14:14.689Z,69.27
2023-02-09T01:16:41.362Z,69.33
2023-02-09T01:19:07.873Z,69.43
2023-02-09T01:21:46.832Z,68.63
2023-02-09T01:24:40.250Z,69.66
2023-02-09T01:27:12.537Z,69.30
2023-02-09T01:30:05.117Z,69.44
2023-02-09T01:32:31.957Z,70.09
2023-02-09T01:35:01.731Z,69.82
2023-02-09T01:37:51.001Z,69.79
2023-02-09T01:40:16.568Z,69.83
2023-02-09T01:42:52.247Z,70.08
2023-02-09T01:45:47.367Z,69.59
2023-02-09T01:48:31.298Z,69.69
2023-02-09T01:51:00.879Z,69.48
2023-02-09T01:53:28.237Z,69.88
2023-02-09T01:56:04.420Z,69.78
2023-02-09T01:58:31.985Z,69.82
2023-02-09T02:01:00.280Z,70.09
2023-02-09T02:03:31.764Z,70.27
2023-02-09T02:06:48.298Z,69.56
2023-02-09T02:09:21.440Z,69.95
2023-02-09T02:12:04.492Z,70.22
2023-02-09T02:14:34.009Z,70.16
2023-02-09T02:20:55.295Z,70.33
2023-02-09T02:24:08.030Z,70.85
2023-02-09T02:27:09.100Z,70.36
2023-02-09T02:30:25.666Z,70.97
2023-02-09T02:33:06.828Z,71.01
2023-02-09T02:35:59.134Z,70.53
2023-02-09T02:38:39.875Z,70.69
2023-02-09T02:42:00.741Z,71.00
2023-02-09T02:44:30.414Z,70.40
2023-02-09T02:47:06.753Z,70.67
2023-02-09T02:49:49.159Z,70.35
2023-02-09T02:55:39.383Z,69.93
2023-02-09T02:58:09.389Z,69.65
2023-02-09T03:01:09.902Z,70.09
2023-02-09T03:03:39.132Z,69.93
2023-02-09T03:06:06.499Z,69.98
2023-02-09T03:09:00.521Z,70.21
2023-02-09T03:11:53.916Z,69.92
2023-02-09T03:14:45.328Z,70.65
2023-02-09T03:17:46.142Z,69.91
2023-02-09T03:21:07.347Z,70.50
2023-02-09T03:24:04.523Z,70.16
2023-02-09T03:26:40.136Z,70.12
2023-02-09T03:29:09.469Z,70.25
2023-02-09T03:31:37.705Z,70.00
2023-02-09T03:34:06.144Z,70.04
2023-02-09T03:36:36.010Z,69.78
2023-02-09T03:39:03.772Z,69.48
2023-02-09T03:41:33.714Z,69.70
2023-02-09T03:44:25.080Z,69.65
2023-02-09T03:47:03.892Z,68.95
2023-02-09T03:49:33.910Z,69.17
2023-02-09T03:52:03.813Z,69.68
2023-02-09T03:54:31.643Z,69.67
2023-02-09T03:57:04.750Z,69.71
2023-02-09T03:59:41.120Z,69.31
2023-02-09T04:02:09.682Z,69.57
2023-02-09T04:04:37.556Z,69.60
2023-02-09T04:07:06.259Z,69.51
2023-02-09T04:09:48.495Z,69.63
2023-02-09T04:12:40.374Z,69.50
2023-02-09T04:15:07.669Z,69.80
2023-02-09T04:17:34.247Z,69.70
2023-02-09T04:20:12.843Z,69.57
2023-02-09T04:22:40.018Z,70.01
2023-02-09T04:25:06.817Z,69.64
2023-02-09T04:28:23.569Z,69.05
2023-02-09T04:31:16.284Z,68.71
2023-02-09T04:33:49.110Z,68.59
2023-02-09T04:36:41.309Z,68.55
2023-02-09T04:39:08.161Z,68.79
2023-02-09T04:41:38.791Z,69.04
2023-02-09T04:44:05.390Z,69.07
2023-02-09T04:47:22.548Z,69.33
2023-02-09T04:49:49.489Z,69.20
2023-02-09T04:52:16.409Z,69.50
2023-02-09T04:54:49.707Z,69.47
2023-02-09T04:57:51.528Z,69.53
2023-02-09T05:00:19.264Z,69.40
2023-02-09T05:02:45.908Z,69.86
2023-02-09T05:05:41.840Z,69.80
2023-02-09T05:08:20.753Z,69.41
2023-02-09T05:11:15.247Z,69.29
2023-02-09T05:13:48.460Z,69.40
2023-02-09T05:19:14.365Z,68.94
2023-02-09T05:21:51.647Z,69.75
2023-02-09T05:24:18.429Z,69.17
2023-02-09T05:26:45.171Z,69.78
2023-02-09T05:29:11.931Z,69.52
2023-02-09T05:31:38.779Z,69.36
2023-02-09T05:34:05.493Z,69.81
2023-02-09T05:36:53.390Z,69.17
2023-02-09T05:39:26.800Z,69.12
2023-02-09T05:42:38.150Z,69.31
2023-02-09T05:45:05.315Z,69.13
2023-02-09T05:47:32.266Z,68.95
2023-02-09T05:50:02.409Z,68.79
2023-02-09T05:52:29.115Z,69.05
2023-02-09T05:54:56.901Z,69.02
2023-02-09T05:57:48.004Z,68.61
2023-02-09T06:00:15.091Z,69.09
2023-02-09T06:02:41.818Z,68.58
2023-02-09T06:05:10.438Z,68.91
2023-02-09T06:08:02.004Z,69.00
2023-02-09T06:10:28.572Z,69.44
2023-02-09T06:13:20.064Z,69.60
2023-02-09T06:15:59.032Z,69.40
2023-02-09T06:18:40.737Z,69.38
2023-02-09T06:25:11.235Z,69.28
2023-02-09T06:27:37.963Z,69.61
2023-02-09T06:30:05.804Z,69.85
2023-02-09T06:32:34.618Z,69.76
2023-02-09T06:35:03.502Z,69.33
2023-02-09T06:38:08.964Z,69.58
2023-02-09T06:40:35.780Z,69.55
2023-02-09T06:46:28.511Z,69.18
2023-02-09T06:48:55.423Z,69.19
2023-02-09T06:51:29.332Z,69.56
2023-02-09T06:54:08.300Z,69.83
2023-02-09T06:57:00.344Z,70.08
2023-02-09T06:59:26.883Z,69.78
2023-02-09T07:01:56.701Z,70.08
2023-02-09T07:04:26.205Z,69.76
2023-02-09T07:07:56.061Z,70.07
2023-02-09T07:11:03.786Z,70.06
2023-02-09T07:16:15.822Z,69.99
2023-02-09T07:18:42.745Z,69.97
2023-02-09T07:21:32.585Z,69.80
2023-02-09T07:24:02.731Z,69.71
2023-02-09T07:26:29.392Z,69.94
2023-02-09T07:29:20.260Z,69.97
2023-02-09T07:31:49.676Z,69.58
2023-02-09T07:34:17.108Z,69.44
2023-02-09T07:37:40.351Z,69.67
2023-02-09T07:40:10.206Z,69.26
2023-02-09T07:42:39.148Z,69.12
2023-02-09T07:45:10.050Z,69.19
2023-02-09T07:47:39.175Z,69.11
2023-02-09T07:50:06.290Z,69.25
2023-02-09T07:52:34.119Z,68.75
2023-02-09T07:55:01.050Z,68.27
2023-02-09T07:57:40.153Z,67.47
2023-02-09T08:00:09.288Z,67.43
2023-02-09T08:02:41.854Z,66.96
2023-02-09T08:05:14.024Z,66.62
2023-02-09T08:07:40.762Z,66.21
2023-02-09T08:10:07.433Z,65.28
2023-02-09T08:13:12.493Z,65.58
2023-02-09T08:15:47.950Z,65.45
2023-02-09T08:18:21.958Z,65.29
2023-02-09T08:20:49.248Z,64.62
2023-02-09T08:23:21.907Z,63.64
2023-02-09T08:25:51.410Z,63.83
2023-02-09T08:28:19.869Z,62.64
2023-02-09T08:30:49.960Z,62.19
2023-02-09T08:33:19.611Z,61.74
2023-02-09T08:35:46.696Z,60.32
2023-02-09T08:38:14.206Z,59.46
2023-02-09T08:40:43.964Z,59.82
2023-02-09T08:43:11.291Z,58.90
2023-02-09T08:45:40.108Z,58.37
2023-02-09T08:48:09.321Z,58.01
2023-02-09T08:50:38.348Z,56.71
2023-02-09T08:53:06.312Z,58.30
2023-02-09T08:55:33.778Z,57.50
2023-02-09T08:58:00.404Z,58.46
2023-02-09T09:00:27.531Z,58.19
2023-02-09T09:02:54.029Z,58.61
2023-02-09T09:05:20.486Z,58.99
2023-02-09T09:07:48.049Z,58.76
2023-02-09T09:10:14.659Z,57.53
2023-02-09T09:12:44.438Z,58.31
2023-02-09T09:15:10.946Z,58.43
2023-02-09T09:17:38.610Z,58.67
2023-02-09T09:20:17.259Z,58.00
2023-02-09T09:22:43.919Z,57.71
2023-02-09T09:25:10.749Z,58.00
2023-02-09T09:30:23.487Z,57.08
2023-02-09T09:32:53.930Z,58.10
2023-02-09T09:35:46.176Z,58.32
2023-02-09T09:38:13.165Z,57.14
2023-02-09T09:40:43.551Z,55.73
2023-02-09T09:43:32.232Z,55.31
2023-02-09T09:45:59.634Z,55.66
2023-02-09T09:48:33.301Z,54.44
2023-02-09T09:51:09.943Z,53.26
2023-02-09T09:53:40.621Z,53.44
2023-02-09T09:56:08.794Z,50.83
2023-02-09T09:58:41.260Z,50.62
2023-02-09T10:01:14.215Z,50.76
2023-02-09T10:03:43.903Z,48.95
2023-02-09T10:06:22.328Z,48.70
2023-02-09T10:08:57.340Z,49.23
2023-02-09T10:12:03.082Z,48.25
2023-02-09T10:14:30.522Z,48.14
2023-02-09T10:16:57.135Z,47.52
2023-02-09T10:20:42.281Z,49.38
2023-02-09T10:24:24.333Z,49.69
2023-02-09T10:38:43.719Z,50.21
2023-02-09T10:41:11.529Z,51.89
2023-02-09T10:43:41.084Z,50.70
2023-02-09T10:46:13.629Z,51.20
2023-02-09T11:42:02.777Z,52.88
2023-02-09T11:45:17.835Z,51.73
2023-02-09T11:48:08.492Z,51.58
2023-02-09T11:51:49.488Z,50.82
2023-02-09T11:59:09.201Z,50.48
2023-02-09T12:09:29.471Z,53.90
2023-02-09T12:12:21.228Z,54.92
2023-02-09T12:14:59.680Z,55.60
2023-02-09T12:18:07.358Z,55.54
2023-02-09T12:21:00.117Z,55.69
2023-02-09T12:24:36.849Z,55.60
2023-02-09T12:28:09.722Z,55.19
2023-02-09T12:30:42.631Z,54.97
2023-02-09T12:33:46.985Z,54.89
2023-02-09T12:36:59.792Z,55.43
2023-02-09T12:43:37.733Z,56.25
2023-02-09T12:46:10.679Z,55.71
2023-02-09T12:49:35.285Z,55.67
2023-02-09T12:52:01.975Z,57.06
2023-02-09T12:54:49.272Z,57.61
2023-02-09T12:57:16.942Z,57.27
2023-02-09T13:00:33.400Z,58.08
2023-02-09T13:03:12.034Z,58.70
2023-02-09T13:05:44.702Z,58.64
2023-02-09T13:08:11.575Z,58.20
2023-02-09T13:10:44.530Z,58.48
2023-02-09T13:13:11.181Z,59.16
2023-02-09T13:16:10.826Z,59.25
2023-02-09T13:19:04.606Z,59.72
2023-02-09T13:21:59.377Z,59.44
2023-02-09T13:24:58.488Z,60.47
2023-02-09T13:27:26.965Z,60.97
2023-02-09T13:30:04.575Z,61.11
2023-02-09T13:33:07.321Z,61.24
2023-02-09T13:36:24.199Z,61.63
2023-02-09T13:38:52.620Z,62.33
2023-02-09T13:41:40.894Z,62.22
2023-02-09T13:44:46.471Z,62.56
2023-02-09T13:47:23.017Z,63.37
2023-02-09T13:50:27.925Z,62.29
2023-02-09T13:52:54.712Z,63.40
2023-02-09T13:55:22.519Z,63.82
2023-02-09T13:58:04.166Z,63.70
2023-02-09T14:00:42.583Z,64.40
2023-02-09T14:03:36.019Z,64.41
2023-02-09T14:06:36.466Z,64.63
2023-02-09T14:09:07.732Z,65.27
2023-02-09T14:11:43.302Z,65.75
2023-02-09T14:14:20.662Z,65.87
2023-02-09T14:16:53.430Z,65.98
2023-02-09T14:19:31.503Z,65.93
2023-02-09T14:21:59.416Z,66.08
2023-02-09T14:24:28.174Z,66.42
2023-02-09T14:27:18.956Z,66.62
2023-02-09T14:29:47.946Z,67.14
2023-02-09T14:32:48.833Z,66.96
2023-02-09T14:35:38.418Z,67.37
2023-02-09T14:38:05.209Z,67.27
2023-02-09T14:40:38.314Z,68.03
2023-02-09T14:43:11.073Z,68.11
2023-02-09T14:45:43.534Z,68.45
2023-02-09T14:48:26.113Z,67.86
2023-02-09T14:51:02.624Z,68.67
2023-02-09T14:53:31.758Z,68.25
2023-02-09T14:56:00.392Z,68.45
2023-02-09T14:58:32.625Z,68.84
2023-02-09T15:01:01.641Z,69.09
2023-02-09T15:03:28.499Z,69.16
2023-02-09T15:05:58.265Z,69.55
2023-02-09T15:08:30.943Z,69.15
2023-02-09T15:11:01.026Z,69.26
2023-02-09T15:13:30.578Z,70.04
2023-02-09T15:15:57.351Z,69.30
2023-02-09T15:18:27.320Z,70.09
2023-02-09T15:20:53.837Z,69.57
2023-02-09T15:23:20.362Z,70.13
2023-02-09T15:25:47.682Z,70.13
2023-02-09T15:28:24.560Z,70.23
2023-02-09T15:30:51.126Z,70.54
2023-02-09T15:33:17.607Z,70.44
2023-02-09T15:35:44.182Z,70.73
2023-02-09T15:38:14.755Z,71.14
2023-02-09T15:40:59.749Z,70.68
2023-02-09T15:43:45.591Z,71.19
2023-02-09T15:46:31.425Z,71.64
2023-02-09T15:48:58.112Z,72.28
2023-02-09T15:51:26.640Z,72.78
2023-02-09T15:54:20.248Z,72.74
2023-02-09T15:59:20.370Z,73.25
2023-02-09T16:01:47.303Z,72.94
2023-02-09T16:04:14.793Z,73.18
2023-02-09T16:06:51.765Z,73.50
2023-02-09T16:09:20.851Z,72.95
2023-02-09T16:11:48.392Z,73.25
2023-02-09T16:14:20.885Z,73.68
2023-02-09T16:16:48.547Z,74.08
2023-02-09T16:19:16.786Z,74.41
2023-02-09T16:21:45.898Z,74.39
2023-02-09T16:24:29.620Z,74.42
2023-02-09T16:26:58.901Z,75.03
2023-02-09T16:29:26.130Z,75.41
2023-02-09T16:31:52.836Z,76.07
2023-02-09T16:34:19.423Z,75.92
2023-02-09T16:36:48.561Z,75.91
2023-02-09T16:39:18.478Z,76.17
2023-02-09T16:41:53.489Z,77.02
2023-02-09T16:44:25.010Z,76.75
2023-02-09T16:46:56.315Z,77.37
2023-02-09T16:49:42.476Z,77.10
2023-02-09T16:52:17.429Z,77.07
2023-02-09T16:55:01.591Z,77.37
2023-02-09T16:57:29.144Z,77.71
2023-02-09T16:59:56.324Z,77.67
2023-02-09T17:02:48.538Z,77.39
2023-02-09T17:05:25.745Z,78.16
2023-02-09T17:08:20.587Z,78.66
2023-02-09T17:10:49.080Z,78.73
2023-02-09T17:13:22.038Z,79.16
2023-02-09T17:15:51.506Z,79.26
2023-02-09T17:18:25.915Z,79.00
2023-02-09T17:20:58.033Z,79.49
2023-02-09T17:23:26.732Z,79.39
2023-02-09T17:25:57.230Z,79.54
2023-02-09T17:28:27.135Z,79.40
2023-02-09T17:30:57.672Z,79.78
2023-02-09T17:33:25.564Z,79.33
2023-02-09T17:36:23.920Z,80.07
2023-02-09T17:38:44.571Z,80.12
2023-02-09T17:41:26.334Z,80.41
2023-02-09T17:43:58.794Z,81.02
2023-02-09T17:46:27.237Z,81.17
2023-02-09T17:48:53.750Z,81.20
2023-02-09T17:51:41.787Z,81.33
2023-02-09T17:54:14.704Z,81.46
2023-02-09T17:56:42.091Z,81.48
2023-02-09T17:59:08.570Z,81.53
2023-02-09T18:01:45.182Z,81.79
2023-02-09T18:04:21.635Z,81.58
2023-02-09T18:06:48.473Z,81.87
2023-02-09T18:09:15.097Z,81.44
2023-02-09T18:12:02.924Z,81.82
2023-02-09T18:14:33.145Z,81.87
2023-02-09T18:17:00.430Z,81.88
2023-02-09T18:19:27.293Z,81.81
2023-02-09T18:21:59.052Z,81.83
2023-02-09T18:24:28.452Z,82.85
2023-02-09T18:26:55.039Z,82.46
2023-02-09T18:29:29.233Z,82.68
2023-02-09T18:32:00.175Z,82.63
2023-02-09T18:34:27.044Z,83.07
2023-02-09T18:36:53.806Z,83.39
2023-02-09T18:39:20.438Z,83.01
2023-02-09T18:41:53.981Z,83.49
2023-02-09T18:44:24.472Z,83.31
2023-02-09T18:46:51.365Z,83.59
2023-02-09T18:49:17.863Z,83.68
2023-02-09T18:51:44.856Z,83.56
2023-02-09T18:54:11.411Z,83.95
2023-02-09T18:56:39.430Z,84.64
2023-02-09T18:59:05.906Z,85.19
2023-02-09T19:01:32.635Z,84.76
2023-02-09T19:03:59.254Z,84.87
2023-02-09T19:06:26.088Z,84.84
2023-02-09T19:08:52.677Z,85.12
2023-02-09T19:11:21.887Z,85.00
2023-02-09T19:14:08.070Z,84.92
2023-02-09T19:16:36.541Z,84.79
2023-02-09T19:19:03.742Z,85.06
2023-02-09T19:21:31.897Z,85.39
2023-02-09T19:23:58.925Z,85.37
2023-02-09T19:26:28.986Z,85.68
2023-02-09T19:28:56.998Z,85.62
2023-02-09T19:31:24.681Z,84.77
2023-02-09T19:33:57.529Z,85.45
2023-02-09T19:36:27.571Z,85.67
2023-02-09T19:38:55.408Z,85.23
2023-02-09T19:41:23.871Z,85.69
2023-02-09T19:43:54.777Z,85.27
2023-02-09T19:46:21.466Z,85.31
2023-02-09T19:48:48.387Z,85.35
2023-02-09T19:51:15.127Z,85.41
2023-02-09T19:53:41.679Z,85.38
2023-02-09T19:56:19.364Z,84.83
2023-02-09T19:58:46.523Z,85.11
2023-02-09T20:01:13.129Z,85.00
2023-02-09T20:03:39.778Z,85.35
2023-02-09T20:06:09.350Z,84.79
2023-02-09T20:08:37.882Z,85.27
2023-02-09T20:11:27.672Z,84.79
2023-02-09T20:13:54.494Z,84.26
2023-02-09T20:16:27.514Z,85.01
2023-02-09T20:18:54.488Z,85.07
2023-02-09T20:21:25.147Z,84.94
2023-02-09T20:24:18.529Z,85.44
2023-02-09T20:26:46.599Z,85.31
2023-02-09T20:29:13.766Z,84.39
2023-02-09T20:31:41.948Z,84.25
2023-02-09T20:34:11.737Z,84.41
2023-02-09T20:36:44.649Z,84.72
2023-02-09T20:39:15.744Z,84.79
2023-02-09T20:42:05.864Z,84.87
2023-02-09T20:47:43.703Z,84.79
2023-02-09T20:50:10.475Z,84.29
2023-02-09T20:52:39.474Z,84.04
2023-02-09T20:55:06.387Z,84.38
2023-02-09T20:58:01.689Z,84.60
2023-02-09T21:00:29.507Z,84.26
2023-02-09T21:03:08.251Z,84.32
2023-02-09T21:05:38.884Z,84.66
2023-02-09T21:08:09.163Z,83.92
2023-02-09T21:10:40.215Z,83.74
2023-02-09T21:13:08.696Z,84.41
2023-02-09T21:15:39.315Z,84.79
2023-02-09T21:18:06.697Z,84.32
2023-02-09T21:20:35.141Z,84.59
2023-02-09T21:23:01.944Z,84.85
2023-02-09T21:25:28.437Z,84.58
2023-02-09T21:27:59.650Z,84.50
2023-02-09T21:30:26.770Z,84.25
2023-02-09T21:32:56.356Z,84.84
2023-02-09T21:35:26.022Z,84.59
2023-02-09T21:37:52.570Z,84.53
2023-02-09T21:40:20.421Z,84.62
2023-02-09T21:42:49.149Z,84.71
2023-02-09T21:45:16.685Z,84.92
2023-02-09T21:47:43.524Z,84.95
2023-02-09T21:50:12.848Z,84.82
2023-02-09T21:52:39.298Z,85.04
2023-02-09T21:55:08.596Z,85.09
2023-02-09T21:57:38.418Z,85.10
2023-02-09T22:00:11.349Z,85.31
2023-02-09T22:02:39.129Z,85.50
2023-02-09T22:05:07.375Z,85.23
2023-02-09T22:07:35.019Z,85.30
2023-02-09T22:10:04.375Z,85.41
2023-02-09T22:12:30.945Z,85.45
2023-02-09T22:14:57.390Z,85.52
2023-02-09T22:17:23.827Z,85.17
2023-02-09T22:19:50.375Z,85.41
2023-02-09T22:22:16.774Z,85.42
2023-02-09T22:24:43.406Z,85.88
2023-02-09T22:27:12.294Z,86.19
2023-02-09T22:29:39.113Z,85.92
2023-02-09T22:32:05.704Z,86.29
2023-02-09T22:34:32.296Z,86.43
2023-02-09T22:36:58.870Z,86.88
2023-02-09T22:39:25.362Z,86.79
2023-02-09T22:41:57.604Z,86.96
2023-02-09T22:44:26.400Z,86.83
2023-02-09T22:46:53.477Z,87.00
2023-02-09T22:49:21.439Z,86.95
2023-02-09T22:51:49.854Z,87.22
2023-02-09T22:54:18.685Z,87.27
2023-02-09T22:56:45.638Z,87.48
2023-02-09T22:59:14.020Z,88.04
2023-02-09T23:01:41.347Z,88.40
2023-02-09T23:04:13.496Z,88.61
2023-02-09T23:06:40.016Z,88.94
2023-02-09T23:09:07.760Z,89.00
2023-02-09T23:11:34.953Z,89.06
2023-02-09T23:14:10.778Z,89.18
2023-02-09T23:16:39.612Z,88.77
2023-02-09T23:19:08.489Z,88.55
2023-02-09T23:21:41.037Z,88.96
2023-02-09T23:24:08.536Z,88.63
2023-02-09T23:26:36.459Z,89.04
2023-02-09T23:29:08.839Z,89.01
2023-02-09T23:31:35.958Z,89.04
2023-02-09T23:34:03.436Z,89.21
2023-02-09T23:36:32.835Z,89.58
2023-02-09T23:39:02.854Z,90.08
2023-02-09T23:41:29.933Z,90.11
2023-02-09T23:43:57.051Z,90.07
2023-02-09T23:46:28.296Z,90.25
2023-02-09T23:48:56.325Z,89.99
2023-02-09T23:51:29.620Z,90.17
2023-02-09T23:54:01.274Z,89.72
2023-02-09T23:56:36.634Z,89.76
2023-02-09T23:59:08.805Z,89.62
